createdAt,value
2022-10-15T00:01:38.139Z,99.10
2022-10-15T00:04:06.897Z,99.40
2022-10-15T00:06:35.651Z,99.40
2022-10-15T00:09:05.789Z,99.30
2022-10-15T00:11:34.518Z,99.30
2022-10-15T00:14:02.783Z,99.10
2022-10-15T00:16:31.226Z,99.20
2022-10-15T00:19:00.646Z,99.20
2022-10-15T00:21:29.261Z,99.40
2022-10-15T00:23:58.198Z,99.80
2022-10-15T00:26:29.839Z,99.90
2022-10-15T00:29:00.032Z,99.90
2022-10-15T00:31:30.236Z,99.90
2022-10-15T00:34:00.779Z,99.90
2022-10-15T00:36:31.180Z,99.90
2022-10-15T00:38:59.758Z,99.90
2022-10-15T00:41:31.304Z,99.90
2022-10-15T00:44:01.021Z,99.90
2022-10-15T00:46:33.344Z,99.90
2022-10-15T00:49:05.233Z,99.90
2022-10-15T00:51:36.807Z,99.90
2022-10-15T00:54:06.062Z,99.90
2022-10-15T00:56:37.614Z,99.90
2022-10-15T00:59:07.692Z,99.90
2022-10-15T01:01:36.614Z,99.90
2022-10-15T01:04:06.920Z,99.90
2022-10-15T01:06:36.186Z,99.90
2022-10-15T01:09:05.627Z,99.90
2022-10-15T01:11:41.959Z,99.90
2022-10-15T01:14:27.301Z,99.90
2022-10-15T01:17:01.197Z,99.90
2022-10-15T01:19:58.993Z,99.90
2022-10-15T01:22:47.364Z,99.90
2022-10-15T01:25:29.844Z,99.90
2022-10-15T01:28:07.613Z,99.90
2022-10-15T01:30:41.789Z,99.90
2022-10-15T01:33:26.037Z,99.90
2022-10-15T01:36:01.342Z,99.90
2022-10-15T01:38:44.932Z,99.90
2022-10-15T01:41:18.084Z,99.90
2022-10-15T01:43:50.021Z,99.90
2022-10-15T01:46:45.214Z,99.90
2022-10-15T01:49:22.511Z,99.90
2022-10-15T01:51:52.313Z,99.90
2022-10-15T01:54:21.837Z,99.90
2022-10-15T01:56:52.732Z,99.90
2022-10-15T01:59:25.880Z,99.90
2022-10-15T02:01:58.090Z,99.90
2022-10-15T02:04:29.137Z,99.90
2022-10-15T02:07:03.572Z,99.90
2022-10-15T02:09:43.956Z,99.90
2022-10-15T02:12:32.053Z,99.90
2022-10-15T02:15:08.201Z,99.90
2022-10-15T02:17:45.166Z,99.90
2022-10-15T02:20:18.461Z,99.90
2022-10-15T02:22:56.102Z,99.90
2022-10-15T02:25:26.624Z,99.90
2022-10-15T02:27:58.213Z,99.90
2022-10-15T02:30:31.296Z,99.90
2022-10-15T02:33:01.998Z,99.80
2022-10-15T02:35:30.408Z,99.40
2022-10-15T02:38:03.743Z,99.30
2022-10-15T02:40:37.024Z,99.10
2022-10-15T02:43:06.982Z,99.20
2022-10-15T02:45:36.948Z,99.60
2022-10-15T02:48:07.987Z,99.80
2022-10-15T02:50:36.816Z,99.80
2022-10-15T02:53:05.075Z,99.60
2022-10-15T02:55:33.566Z,99.20
2022-10-15T02:58:02.134Z,98.70
2022-10-15T03:00:30.658Z,98.70
2022-10-15T03:02:58.960Z,98.30
2022-10-15T03:07:57.495Z,98.10
2022-10-15T03:10:25.739Z,97.70
2022-10-15T03:12:54.129Z,97.60
2022-10-15T03:15:23.386Z,97.70
2022-10-15T03:17:52.542Z,97.70
2022-10-15T03:20:21.796Z,97.80
2022-10-15T03:22:51.678Z,97.70
2022-10-15T03:25:20.287Z,98.10
2022-10-15T03:27:53.083Z,98.10
2022-10-15T03:30:27.599Z,97.80
2022-10-15T03:32:56.213Z,97.80
2022-10-15T03:35:24.624Z,97.60
2022-10-15T03:37:54.492Z,97.30
2022-10-15T03:40:23.447Z,97.00
2022-10-15T03:42:56.515Z,96.90
2022-10-15T03:45:27.242Z,96.70
2022-10-15T03:48:13.165Z,96.80
2022-10-15T03:50:41.762Z,96.50
2022-10-15T03:53:11.709Z,96.40
2022-10-15T03:55:40.365Z,96.40
2022-10-15T03:58:09.708Z,96.60
2022-10-15T04:00:44.326Z,96.40
2022-10-15T04:03:13.254Z,96.20
2022-10-15T04:05:42.071Z,96.40
2022-10-15T04:08:14.558Z,96.60
2022-10-15T04:10:42.781Z,96.80
2022-10-15T04:13:11.337Z,96.70
2022-10-15T04:15:41.058Z,96.60
2022-10-15T04:18:12.913Z,96.30
2022-10-15T04:20:42.823Z,95.80
2022-10-15T04:23:18.903Z,95.70
2022-10-15T04:26:07.726Z,95.90
2022-10-15T04:28:36.091Z,95.40
2022-10-15T04:31:04.928Z,96.00
2022-10-15T04:33:33.601Z,96.60
2022-10-15T04:36:03.774Z,95.80
2022-10-15T04:38:48.300Z,95.80
2022-10-15T04:41:23.470Z,95.40
2022-10-15T04:44:14.609Z,95.30
2022-10-15T04:46:49.195Z,95.80
2022-10-15T04:49:42.388Z,95.70
2022-10-15T04:52:26.733Z,95.80
2022-10-15T04:55:03.366Z,95.90
2022-10-15T04:57:31.799Z,96.40
2022-10-15T05:00:00.039Z,96.60
2022-10-15T05:02:28.361Z,96.70
2022-10-15T05:05:10.271Z,96.80
2022-10-15T05:07:48.366Z,96.60
2022-10-15T05:10:18.983Z,96.60
2022-10-15T05:12:50.301Z,96.90
2022-10-15T05:15:28.828Z,97.10
2022-10-15T05:17:57.733Z,97.00
2022-10-15T05:20:33.327Z,97.20
2022-10-15T05:23:01.572Z,96.70
2022-10-15T05:25:35.809Z,96.90
2022-10-15T05:28:05.075Z,96.80
2022-10-15T05:30:35.679Z,98.20
2022-10-15T05:33:05.009Z,97.60
2022-10-15T05:35:33.212Z,98.40
2022-10-15T05:38:04.323Z,98.90
2022-10-15T05:40:32.771Z,97.90
2022-10-15T05:43:21.335Z,98.20
2022-10-15T05:45:50.676Z,97.90
2022-10-15T05:48:19.748Z,98.30
2022-10-15T05:50:48.585Z,97.90
2022-10-15T05:53:23.800Z,98.30
2022-10-15T05:56:00.373Z,99.40
2022-10-15T05:58:37.325Z,99.20
2022-10-15T06:01:08.271Z,98.40
2022-10-15T06:03:39.838Z,98.50
2022-10-15T06:06:15.963Z,99.20
2022-10-15T06:08:44.300Z,98.80
2022-10-15T06:11:12.672Z,99.60
2022-10-15T06:13:43.448Z,99.50
2022-10-15T06:16:12.835Z,98.90
2022-10-15T06:18:41.648Z,99.60
2022-10-15T06:21:12.208Z,99.80
2022-10-15T06:23:40.576Z,99.40
2022-10-15T06:26:11.447Z,99.00
2022-10-15T06:28:41.847Z,98.70
2022-10-15T06:31:10.024Z,98.30
2022-10-15T06:33:38.303Z,98.70
2022-10-15T06:36:08.983Z,98.10
2022-10-15T06:38:37.528Z,98.70
2022-10-15T06:41:06.610Z,98.90
2022-10-15T06:43:35.617Z,98.80
2022-10-15T06:46:07.392Z,98.90
2022-10-15T06:48:36.245Z,99.00
2022-10-15T06:51:05.077Z,98.90
2022-10-15T06:53:34.233Z,99.20
2022-10-15T06:56:04.047Z,99.10
2022-10-15T06:58:37.663Z,99.00
2022-10-15T07:01:08.929Z,98.80
2022-10-15T07:03:39.012Z,98.50
2022-10-15T07:06:09.873Z,98.80
2022-10-15T07:08:38.059Z,99.00
2022-10-15T07:11:08.923Z,99.40
2022-10-15T07:13:37.322Z,99.20
2022-10-15T07:16:09.107Z,99.20
2022-10-15T07:18:38.879Z,99.00
2022-10-15T07:23:37.370Z,98.70
2022-10-15T07:26:07.778Z,99.00
2022-10-15T07:28:36.419Z,98.90
2022-10-15T07:31:06.428Z,98.50
2022-10-15T07:33:36.841Z,99.10
2022-10-15T07:36:09.446Z,98.80
2022-10-15T07:38:37.966Z,98.50
2022-10-15T07:41:06.548Z,99.20
2022-10-15T07:43:43.690Z,99.00
2022-10-15T07:46:11.994Z,98.60
2022-10-15T07:48:41.838Z,98.10
2022-10-15T07:51:12.127Z,98.00
2022-10-15T07:53:40.718Z,98.00
2022-10-15T07:56:12.687Z,97.70
2022-10-15T07:58:41.715Z,97.70
2022-10-15T08:01:11.882Z,97.50
2022-10-15T08:03:41.688Z,97.80
2022-10-15T08:06:11.308Z,98.00
2022-10-15T08:08:39.677Z,97.70
2022-10-15T08:11:09.436Z,97.70
2022-10-15T08:13:39.152Z,97.80
2022-10-15T08:16:07.725Z,97.90
2022-10-15T08:18:37.914Z,98.40
2022-10-15T08:21:08.583Z,98.10
2022-10-15T08:23:37.178Z,97.20
2022-10-15T08:26:06.094Z,97.00
2022-10-15T08:28:35.526Z,95.50
2022-10-15T08:31:05.931Z,96.80
2022-10-15T08:33:37.788Z,97.10
2022-10-15T08:36:08.352Z,97.10
2022-10-15T08:38:36.800Z,96.90
2022-10-15T08:41:19.316Z,96.10
2022-10-15T08:43:48.605Z,96.90
2022-10-15T08:46:21.412Z,96.80
2022-10-15T08:48:53.660Z,96.90
2022-10-15T08:51:25.132Z,97.60
2022-10-15T08:53:57.714Z,93.90
2022-10-15T08:56:31.575Z,92.80
2022-10-15T08:59:10.074Z,94.10
2022-10-15T09:01:45.863Z,92.80
2022-10-15T09:07:04.988Z,93.00
2022-10-15T09:09:41.194Z,91.70
2022-10-15T09:12:21.405Z,91.70
2022-10-15T09:14:51.060Z,91.50
2022-10-15T09:17:25.123Z,91.20
2022-10-15T09:19:57.127Z,90.50
2022-10-15T09:22:29.003Z,91.00
2022-10-15T09:24:57.754Z,90.60
2022-10-15T09:27:32.577Z,90.10
2022-10-15T09:30:07.095Z,90.30
2022-10-15T09:32:39.891Z,90.40
2022-10-15T09:35:18.480Z,90.90
2022-10-15T09:37:54.132Z,90.70
2022-10-15T09:40:31.623Z,91.90
2022-10-15T09:43:01.514Z,91.30
2022-10-15T09:45:30.003Z,90.50
2022-10-15T09:48:00.392Z,90.90
2022-10-15T09:50:41.680Z,90.80
2022-10-15T09:53:19.241Z,90.70
2022-10-15T09:55:51.579Z,90.80
2022-10-15T09:58:27.513Z,91.20
2022-10-15T10:01:01.684Z,91.10
2022-10-15T10:03:37.787Z,90.50
2022-10-15T10:06:09.243Z,91.20
2022-10-15T10:08:53.317Z,90.90
2022-10-15T10:11:23.340Z,90.60
2022-10-15T10:13:55.512Z,91.30
2022-10-15T10:16:24.428Z,90.80
2022-10-15T10:19:12.805Z,91.10
2022-10-15T10:21:42.915Z,90.70
2022-10-15T10:24:28.550Z,90.30
2022-10-15T10:26:57.283Z,89.60
2022-10-15T10:29:33.951Z,89.90
2022-10-15T10:32:12.318Z,90.30
2022-10-15T10:34:46.460Z,89.90
2022-10-15T10:37:17.102Z,89.10
2022-10-15T10:39:47.368Z,89.50
2022-10-15T10:42:28.087Z,89.00
2022-10-15T10:44:56.399Z,88.30
2022-10-15T10:47:25.807Z,88.70
2022-10-15T10:50:00.187Z,88.80
2022-10-15T10:52:31.134Z,88.60
2022-10-15T10:55:06.997Z,88.50
2022-10-15T10:57:45.149Z,88.40
2022-10-15T11:00:18.213Z,88.20
2022-10-15T11:02:50.176Z,88.10
2022-10-15T11:05:26.355Z,88.10
2022-10-15T11:08:04.516Z,87.20
2022-10-15T11:10:37.949Z,87.30
2022-10-15T11:13:30.409Z,86.00
2022-10-15T11:16:05.112Z,85.20
2022-10-15T11:18:47.753Z,84.50
2022-10-15T11:21:23.530Z,84.90
2022-10-15T11:24:12.874Z,85.40
2022-10-15T11:27:12.003Z,84.10
2022-10-15T11:29:55.162Z,84.10
2022-10-15T11:32:54.676Z,82.20
2022-10-15T11:35:54.879Z,82.60
2022-10-15T11:38:31.891Z,81.60
2022-10-15T11:41:25.209Z,81.70
2022-10-15T11:44:21.028Z,82.20
2022-10-15T11:46:55.341Z,81.60
2022-10-15T11:52:27.072Z,82.10
2022-10-15T11:55:03.765Z,82.60
2022-10-15T11:57:35.158Z,81.80
2022-10-15T12:00:15.568Z,81.20
2022-10-15T12:02:46.487Z,81.10
2022-10-15T12:05:19.580Z,82.20
2022-10-15T12:07:49.653Z,81.30
2022-10-15T12:10:38.784Z,81.10
2022-10-15T12:13:12.572Z,81.40
2022-10-15T12:15:51.535Z,81.60
2022-10-15T12:18:26.657Z,81.00
2022-10-15T12:20:58.346Z,81.40
2022-10-15T12:23:41.227Z,80.90
2022-10-15T12:26:32.048Z,80.60
2022-10-15T12:29:03.926Z,79.70
2022-10-15T12:31:53.958Z,79.30
2022-10-15T12:34:29.883Z,78.90
2022-10-15T12:37:03.930Z,79.20
2022-10-15T12:39:48.057Z,79.10
2022-10-15T12:42:28.431Z,79.00
2022-10-15T12:44:59.389Z,79.60
2022-10-15T12:47:51.521Z,81.10
2022-10-15T12:50:22.166Z,79.90
2022-10-15T12:53:02.018Z,80.00
2022-10-15T12:55:33.233Z,80.00
2022-10-15T12:58:04.249Z,79.20
2022-10-15T13:00:42.443Z,80.40
2022-10-15T13:03:43.338Z,79.50
2022-10-15T13:06:25.532Z,79.30
2022-10-15T13:08:56.590Z,78.60
2022-10-15T13:11:28.275Z,78.30
2022-10-15T13:14:01.838Z,78.20
2022-10-15T13:16:33.770Z,77.40
2022-10-15T13:19:02.082Z,76.30
2022-10-15T13:21:52.283Z,76.00
2022-10-15T13:24:23.065Z,76.30
2022-10-15T13:26:54.725Z,75.70
2022-10-15T13:29:25.389Z,75.50
2022-10-15T13:31:55.950Z,75.50
2022-10-15T13:34:29.928Z,75.90
2022-10-15T13:37:01.174Z,76.80
2022-10-15T13:42:11.427Z,76.00
2022-10-15T13:44:39.806Z,76.20
2022-10-15T13:47:26.162Z,76.20
2022-10-15T13:50:18.551Z,76.40
2022-10-15T13:52:52.335Z,76.30
2022-10-15T13:55:23.892Z,76.00
2022-10-15T13:57:57.500Z,75.80
2022-10-15T14:00:30.413Z,75.80
2022-10-15T14:03:17.066Z,76.20
2022-10-15T14:05:47.618Z,75.10
2022-10-15T14:08:35.250Z,75.30
2022-10-15T14:11:03.684Z,74.90
2022-10-15T14:13:32.078Z,74.40
2022-10-15T14:16:14.931Z,75.60
2022-10-15T14:18:49.141Z,75.70
2022-10-15T14:21:21.210Z,75.40
2022-10-15T14:23:51.432Z,75.40
2022-10-15T14:26:25.474Z,75.10
2022-10-15T14:28:56.024Z,74.80
2022-10-15T14:31:39.412Z,74.60
2022-10-15T14:34:30.980Z,74.20
2022-10-15T14:36:59.158Z,74.20
2022-10-15T14:39:31.914Z,74.80
2022-10-15T14:42:02.597Z,74.40
2022-10-15T14:44:50.958Z,73.90
2022-10-15T14:47:23.647Z,73.60
2022-10-15T14:49:55.422Z,73.80
2022-10-15T14:52:24.177Z,74.30
2022-10-15T14:55:02.698Z,73.40
2022-10-15T14:57:33.223Z,73.60
2022-10-15T15:00:03.002Z,74.20
2022-10-15T15:02:31.747Z,74.50
2022-10-15T15:05:17.507Z,74.40
2022-10-15T15:07:48.177Z,74.70
2022-10-15T15:10:18.373Z,74.50
2022-10-15T15:12:51.435Z,74.30
2022-10-15T15:15:22.555Z,73.80
2022-10-15T15:17:51.058Z,73.50
2022-10-15T15:20:21.390Z,73.70
2022-10-15T15:22:51.179Z,73.70
2022-10-15T15:25:22.508Z,73.90
2022-10-15T15:27:50.859Z,73.80
2022-10-15T15:30:21.150Z,74.10
2022-10-15T15:32:50.083Z,73.90
2022-10-15T15:35:23.948Z,74.10
2022-10-15T15:37:52.691Z,73.70
2022-10-15T15:40:22.201Z,74.10
2022-10-15T15:42:51.426Z,74.60
2022-10-15T15:45:22.277Z,73.90
2022-10-15T15:47:54.127Z,73.40
2022-10-15T15:50:23.209Z,73.70
2022-10-15T15:52:51.818Z,73.00
2022-10-15T15:55:21.634Z,74.10
2022-10-15T15:57:49.854Z,74.00
2022-10-15T16:00:18.568Z,73.10
2022-10-15T16:02:46.919Z,73.50
2022-10-15T16:05:18.977Z,73.00
2022-10-15T16:07:47.366Z,72.90
2022-10-15T16:10:15.574Z,72.30
2022-10-15T16:12:47.972Z,72.50
2022-10-15T16:15:16.464Z,72.80
2022-10-15T16:17:45.585Z,73.00
2022-10-15T16:20:17.770Z,73.00
2022-10-15T16:22:50.080Z,72.70
2022-10-15T16:25:50.978Z,72.60
2022-10-15T16:28:20.761Z,73.00
2022-10-15T16:30:49.581Z,72.90
2022-10-15T16:33:18.318Z,72.80
2022-10-15T16:35:52.679Z,72.50
2022-10-15T16:38:21.055Z,72.80
2022-10-15T16:40:49.503Z,72.90
2022-10-15T16:43:17.849Z,73.30
2022-10-15T16:45:56.323Z,73.70
2022-10-15T16:48:26.073Z,74.90
2022-10-15T16:51:01.154Z,76.00
2022-10-15T16:53:30.196Z,75.90
2022-10-15T16:56:02.540Z,76.70
2022-10-15T16:58:31.638Z,76.30
2022-10-15T17:01:01.867Z,76.70
2022-10-15T17:03:30.806Z,76.40
2022-10-15T17:06:00.231Z,76.50
2022-10-15T17:08:35.652Z,77.20
2022-10-15T17:11:04.066Z,78.10
2022-10-15T17:13:33.999Z,78.20
2022-10-15T17:16:12.207Z,78.40
2022-10-15T17:18:40.987Z,78.70
2022-10-15T17:21:10.911Z,78.30
2022-10-15T17:23:39.527Z,78.80
2022-10-15T17:26:10.217Z,79.50
2022-10-15T17:28:38.609Z,79.30
2022-10-15T17:31:08.885Z,79.00
2022-10-15T17:33:39.480Z,78.70
2022-10-15T17:36:10.100Z,78.50
2022-10-15T17:38:38.913Z,78.60
2022-10-15T17:41:09.363Z,78.40
2022-10-15T17:43:40.109Z,78.60
2022-10-15T17:46:14.607Z,78.50
2022-10-15T17:48:45.021Z,78.70
2022-10-15T17:51:15.560Z,78.70
2022-10-15T17:53:44.718Z,78.30
2022-10-15T17:56:15.375Z,78.00
2022-10-15T17:58:44.075Z,78.00
2022-10-15T18:01:17.814Z,77.90
2022-10-15T18:03:53.199Z,77.10
2022-10-15T18:06:24.152Z,77.20
2022-10-15T18:08:53.209Z,77.70
2022-10-15T18:11:24.137Z,76.80
2022-10-15T18:13:52.436Z,76.30
2022-10-15T18:16:21.388Z,76.30
2022-10-15T18:18:50.754Z,76.90
2022-10-15T18:21:21.499Z,75.80
2022-10-15T18:23:49.695Z,75.90
2022-10-15T18:26:20.826Z,75.90
2022-10-15T18:28:50.793Z,76.00
2022-10-15T18:31:19.686Z,75.90
2022-10-15T18:33:51.967Z,75.80
2022-10-15T18:36:23.797Z,75.70
2022-10-15T18:38:52.084Z,75.70
2022-10-15T18:41:22.263Z,75.60
2022-10-15T18:43:55.164Z,75.80
2022-10-15T18:46:27.573Z,75.70
2022-10-15T18:48:56.254Z,75.80
2022-10-15T18:51:29.467Z,75.50
2022-10-15T18:53:57.672Z,75.30
2022-10-15T18:56:25.867Z,75.70
2022-10-15T18:58:54.072Z,76.00
2022-10-15T19:01:28.027Z,75.40
2022-10-15T19:03:57.371Z,75.30
2022-10-15T19:06:28.399Z,75.40
2022-10-15T19:08:59.838Z,75.60
2022-10-15T19:11:32.179Z,75.70
2022-10-15T19:14:01.404Z,76.70
2022-10-15T19:16:31.524Z,77.70
2022-10-15T19:19:15.545Z,78.10
2022-10-15T19:21:43.726Z,79.30
2022-10-15T19:24:13.891Z,78.70
2022-10-15T19:26:42.129Z,78.70
2022-10-15T19:29:10.641Z,78.70
2022-10-15T19:31:40.800Z,78.50
2022-10-15T19:34:09.424Z,79.60
2022-10-15T19:36:39.895Z,79.10
2022-10-15T19:39:10.049Z,79.50
2022-10-15T19:41:41.503Z,79.80
2022-10-15T19:44:10.646Z,79.80
2022-10-15T19:46:39.611Z,79.90
2022-10-15T19:49:09.616Z,80.30
2022-10-15T19:51:37.817Z,80.50
2022-10-15T19:54:06.380Z,80.80
2022-10-15T19:56:34.971Z,80.40
2022-10-15T19:59:06.144Z,80.20
2022-10-15T20:01:35.436Z,80.40
2022-10-15T20:04:06.812Z,80.30
2022-10-15T20:06:38.267Z,79.80
2022-10-15T20:09:07.257Z,79.70
2022-10-15T20:11:35.882Z,80.10
2022-10-15T20:14:06.409Z,79.60
2022-10-15T20:16:34.670Z,79.50
2022-10-15T20:19:03.505Z,79.60
2022-10-15T20:21:32.126Z,79.60
2022-10-15T20:24:03.870Z,79.50
2022-10-15T20:26:32.270Z,79.20
2022-10-15T20:29:00.747Z,79.50
2022-10-15T20:31:33.092Z,79.40
2022-10-15T20:34:02.114Z,79.60
2022-10-15T20:36:30.688Z,79.50
2022-10-15T20:39:00.915Z,79.60
2022-10-15T20:41:29.593Z,79.20
2022-10-15T20:43:58.391Z,80.20
2022-10-15T20:46:31.319Z,79.80
2022-10-15T20:49:08.515Z,79.70
2022-10-15T20:51:38.275Z,79.70
2022-10-15T20:54:07.286Z,80.30
2022-10-15T20:56:35.544Z,80.00
2022-10-15T20:59:05.046Z,79.80
2022-10-15T21:01:35.776Z,79.40
2022-10-15T21:04:04.909Z,79.40
2022-10-15T21:06:33.891Z,79.60
2022-10-15T21:09:02.262Z,79.50
2022-10-15T21:11:30.757Z,79.80
2022-10-15T21:14:01.458Z,81.20
2022-10-15T21:16:29.710Z,81.90
2022-10-15T21:18:59.314Z,82.30
2022-10-15T21:21:28.560Z,84.90
2022-10-15T21:23:56.768Z,83.80
2022-10-15T21:26:25.008Z,83.00
2022-10-15T21:28:56.101Z,82.30
2022-10-15T21:31:25.182Z,82.10
2022-10-15T21:33:53.858Z,81.80
2022-10-15T21:36:25.071Z,81.30
2022-10-15T21:38:54.979Z,81.40
2022-10-15T21:41:23.829Z,81.40
2022-10-15T21:43:52.458Z,81.40
2022-10-15T21:46:20.775Z,81.60
2022-10-15T21:48:49.335Z,81.80
2022-10-15T21:51:20.306Z,82.00
2022-10-15T21:53:49.885Z,81.80
2022-10-15T21:56:18.715Z,81.60
2022-10-15T21:58:46.866Z,81.60
2022-10-15T22:01:19.075Z,81.70
2022-10-15T22:03:48.394Z,82.00
2022-10-15T22:06:17.487Z,82.10
2022-10-15T22:08:46.471Z,82.30
2022-10-15T22:11:18.857Z,82.50
2022-10-15T22:13:48.999Z,82.70
2022-10-15T22:16:17.850Z,83.00
2022-10-15T22:18:46.116Z,83.10
2022-10-15T22:21:16.198Z,82.80
2022-10-15T22:23:45.335Z,82.80
2022-10-15T22:26:16.017Z,83.20
2022-10-15T22:28:45.073Z,83.30
2022-10-15T22:31:16.873Z,83.10
2022-10-15T22:33:46.232Z,83.30
2022-10-15T22:36:16.881Z,83.70
2022-10-15T22:38:48.384Z,83.70
2022-10-15T22:41:18.341Z,83.90
2022-10-15T22:43:46.884Z,84.00
2022-10-15T22:46:15.545Z,84.30
2022-10-15T22:48:44.526Z,84.00
2022-10-15T22:51:15.064Z,84.20
2022-10-15T22:53:43.836Z,84.20
2022-10-15T22:56:15.321Z,84.40
2022-10-15T22:58:45.715Z,84.60
2022-10-15T23:01:16.365Z,84.60
2022-10-15T23:03:46.155Z,84.00
2022-10-15T23:06:15.097Z,83.30
2022-10-15T23:08:43.721Z,83.30
2022-10-15T23:11:13.735Z,82.60
2022-10-15T23:13:43.487Z,82.20
2022-10-15T23:16:18.983Z,82.20
2022-10-15T23:18:49.295Z,82.40
2022-10-15T23:21:19.673Z,81.80
2022-10-15T23:23:48.386Z,81.90
2022-10-15T23:26:18.016Z,81.70
2022-10-15T23:28:51.089Z,81.40
2022-10-15T23:31:22.230Z,81.40
2022-10-15T23:33:50.461Z,81.60
2022-10-15T23:36:19.356Z,81.30
2022-10-15T23:38:50.906Z,81.00
2022-10-15T23:41:19.568Z,81.00
2022-10-15T23:43:48.565Z,81.00
2022-10-15T23:46:17.100Z,81.60
2022-10-15T23:48:47.755Z,82.00
2022-10-15T23:51:18.623Z,84.40
2022-10-15T23:53:47.301Z,84.00
2022-10-15T23:56:16.729Z,83.40
2022-10-15T23:58:48.969Z,82.70
